createdAt,value
2018-01-26T00:00:00.942Z,1009.2
2018-01-26T00:01:10.141Z,1009.25
2018-01-26T00:02:19.122Z,1009.25
2018-01-26T00:03:28.340Z,1009.26
2018-01-26T00:04:37.051Z,1009.28
2018-01-26T00:05:46.008Z,1009.24
2018-01-26T00:06:55.217Z,1009.26
2018-01-26T00:08:04.444Z,1009.29
2018-01-26T00:09:13.917Z,1009.24
2018-01-26T00:10:22.616Z,1009.25
2018-01-26T00:11:31.295Z,1009.22
2018-01-26T00:12:39.980Z,1009.26
2018-01-26T00:13:48.690Z,1009.26
2018-01-26T00:14:57.670Z,1009.3
2018-01-26T00:16:07.167Z,1009.29
2018-01-26T00:17:16.663Z,1009.24
2018-01-26T00:18:25.339Z,1009.25
2018-01-26T00:19:34.017Z,1009.26
2018-01-26T00:20:42.725Z,1009.24
2018-01-26T00:21:51.660Z,1009.3
2018-01-26T00:23:00.603Z,1009.3
2018-01-26T00:24:09.302Z,1009.28
2018-01-26T00:25:18.232Z,1009.26
2018-01-26T00:26:27.184Z,1009.28
2018-01-26T00:27:36.121Z,1009.22
2018-01-26T00:28:44.809Z,1009.2
2018-01-26T00:29:54.020Z,1009.13
2018-01-26T00:31:02.989Z,1009.11
2018-01-26T00:32:12.192Z,1009.09
2018-01-26T00:33:21.422Z,1009.09
2018-01-26T00:34:30.363Z,1009.11
2018-01-26T00:35:39.861Z,1009.11
2018-01-26T00:36:49.103Z,1009.05
2018-01-26T00:37:58.866Z,1009.08
2018-01-26T00:39:07.869Z,1009.05
2018-01-26T00:40:16.842Z,1009.07
2018-01-26T00:41:26.062Z,1009.07
2018-01-26T00:42:35.294Z,1009.11
2018-01-26T00:43:44.493Z,1009.11
2018-01-26T00:44:53.436Z,1009.17
2018-01-26T00:46:02.645Z,1009.14
2018-01-26T00:47:11.386Z,1009.13
2018-01-26T00:48:20.326Z,1009.17
2018-01-26T00:49:29.017Z,1009.15
2018-01-26T00:50:37.764Z,1009.14
2018-01-26T00:51:46.979Z,1009.19
2018-01-26T00:52:55.700Z,1009.2
2018-01-26T00:54:04.404Z,1009.24
2018-01-26T00:55:13.360Z,1009.24
2018-01-26T00:56:22.325Z,1009.28
2018-01-26T00:57:31.542Z,1009.25
2018-01-26T00:58:40.241Z,1009.23
2018-01-26T00:59:49.016Z,1009.24
2018-01-26T01:00:57.711Z,1009.21
2018-01-26T01:02:06.684Z,1009.25
2018-01-26T01:03:16.160Z,1009.25
2018-01-26T01:04:25.660Z,1009.27
2018-01-26T01:05:34.624Z,1009.26
2018-01-26T01:06:43.843Z,1009.28
2018-01-26T01:07:52.526Z,1009.26
2018-01-26T01:09:01.504Z,1009.23
2018-01-26T01:10:11.042Z,1009.29
2018-01-26T01:11:20.010Z,1009.3
2018-01-26T01:12:28.984Z,1009.32
2018-01-26T01:13:38.719Z,1009.35
2018-01-26T01:14:47.698Z,1009.28
2018-01-26T01:15:56.381Z,1009.29
2018-01-26T01:17:05.320Z,1009.26
2018-01-26T01:18:14.259Z,1009.28
2018-01-26T01:19:23.505Z,1009.25
2018-01-26T01:20:32.464Z,1009.31
2018-01-26T01:21:41.699Z,1009.34
2018-01-26T01:22:50.468Z,1009.37
2018-01-26T01:23:59.150Z,1009.37
2018-01-26T01:25:07.830Z,1009.32
2018-01-26T01:26:17.028Z,1009.29
2018-01-26T01:27:26.247Z,1009.24
2018-01-26T01:28:35.209Z,1009.2
2018-01-26T01:29:44.419Z,1009.18
2018-01-26T01:30:53.629Z,1009.12
2018-01-26T01:32:02.602Z,1009.1
2018-01-26T01:33:11.577Z,1009.09
2018-01-26T01:34:20.278Z,1009.09
2018-01-26T01:35:29.233Z,1009.11
2018-01-26T01:36:38.443Z,1009.12
2018-01-26T01:37:47.403Z,1009.16
2018-01-26T01:38:56.078Z,1009.16
2018-01-26T01:40:05.304Z,1009.17
2018-01-26T01:41:14.501Z,1009.19
2018-01-26T01:42:23.229Z,1009.14
2018-01-26T01:43:32.180Z,1009.14
2018-01-26T01:44:41.652Z,1009.18
2018-01-26T01:45:50.866Z,1009.14
2018-01-26T01:47:00.082Z,1009.15
2018-01-26T01:48:09.032Z,1009.22
2018-01-26T01:49:18.237Z,1009.16
2018-01-26T01:50:27.191Z,1009.15
2018-01-26T01:51:36.137Z,1009.21
2018-01-26T01:52:44.830Z,1009.25
2018-01-26T01:53:54.046Z,1009.23
2018-01-26T01:55:02.760Z,1009.23
2018-01-26T01:56:11.444Z,1009.24
2018-01-26T01:57:20.128Z,1009.24
2018-01-26T01:58:29.076Z,1009.26
2018-01-26T01:59:38.014Z,1009.31
2018-01-26T02:00:46.958Z,1009.31
2018-01-26T02:01:56.416Z,1009.33
2018-01-26T02:03:05.620Z,1009.29
2018-01-26T02:04:14.303Z,1009.31
2018-01-26T02:05:23.520Z,1009.3
2018-01-26T02:06:32.475Z,1009.34
2018-01-26T02:07:41.802Z,1009.39
2018-01-26T02:08:50.481Z,1009.41
2018-01-26T02:10:00.233Z,1009.45
2018-01-26T02:11:09.437Z,1009.47
2018-01-26T02:12:18.384Z,1009.45
2018-01-26T02:13:27.075Z,1009.45
2018-01-26T02:14:35.758Z,1009.44
2018-01-26T02:15:44.705Z,1009.42
2018-01-26T02:16:53.405Z,1009.42
2018-01-26T02:18:02.351Z,1009.41
2018-01-26T02:19:11.875Z,1009.43
2018-01-26T02:20:20.802Z,1009.42
2018-01-26T02:21:29.488Z,1009.42
2018-01-26T02:22:38.174Z,1009.42
2018-01-26T02:23:47.654Z,1009.41
2018-01-26T02:24:56.618Z,1009.46
2018-01-26T02:26:05.297Z,1009.47
2018-01-26T02:27:13.964Z,1009.5
2018-01-26T02:28:23.173Z,1009.51
2018-01-26T02:29:32.116Z,1009.53
2018-01-26T02:30:41.063Z,1009.52
2018-01-26T02:31:50.281Z,1009.51
2018-01-26T02:32:58.976Z,1009.42
2018-01-26T02:34:07.948Z,1009.39
2018-01-26T02:35:16.652Z,1009.31
2018-01-26T02:36:25.617Z,1009.32
2018-01-26T02:37:34.570Z,1009.32
2018-01-26T02:38:44.045Z,1009.31
2018-01-26T02:39:53.514Z,1009.32
2018-01-26T02:41:02.751Z,1009.33
2018-01-26T02:42:11.974Z,1009.33
2018-01-26T02:43:20.917Z,1009.33
2018-01-26T02:44:29.873Z,1009.3
2018-01-26T02:45:39.337Z,1009.27
2018-01-26T02:46:48.557Z,1009.26
2018-01-26T02:47:58.040Z,1009.27
2018-01-26T02:49:07.269Z,1009.26
2018-01-26T02:50:16.756Z,1009.24
2018-01-26T02:51:25.728Z,1009.3
2018-01-26T02:52:35.185Z,1009.27
2018-01-26T02:53:43.868Z,1009.24
2018-01-26T02:54:53.082Z,1009.27
2018-01-26T02:56:02.545Z,1009.24
2018-01-26T02:57:12.314Z,1009.24
2018-01-26T02:58:21.524Z,1009.28
2018-01-26T02:59:30.974Z,1009.3
2018-01-26T03:00:40.194Z,1009.31
2018-01-26T03:01:50.109Z,1009.31
2018-01-26T03:02:58.812Z,1009.35
2018-01-26T03:04:08.532Z,1009.35
2018-01-26T03:05:17.738Z,1009.39
2018-01-26T03:06:26.694Z,1009.42
2018-01-26T03:07:35.684Z,1009.42
2018-01-26T03:08:44.629Z,1009.38
2018-01-26T03:09:53.571Z,1009.38
2018-01-26T03:11:02.779Z,1009.41
2018-01-26T03:12:11.735Z,1009.43
2018-01-26T03:13:20.961Z,1009.41
2018-01-26T03:14:30.166Z,1009.46
2018-01-26T03:15:39.359Z,1009.45
2018-01-26T03:16:48.046Z,1009.45
2018-01-26T03:17:56.789Z,1009.45
2018-01-26T03:19:06.002Z,1009.43
2018-01-26T03:20:15.204Z,1009.41
2018-01-26T03:21:24.154Z,1009.43
2018-01-26T03:22:33.369Z,1009.45
2018-01-26T03:23:42.060Z,1009.43
2018-01-26T03:24:51.005Z,1009.44
2018-01-26T03:25:59.946Z,1009.48
2018-01-26T03:27:08.894Z,1009.49
2018-01-26T03:28:18.560Z,1009.5
2018-01-26T03:29:27.240Z,1009.51
2018-01-26T03:30:36.706Z,1009.54
2018-01-26T03:31:45.925Z,1009.54
2018-01-26T03:32:54.865Z,1009.54
2018-01-26T03:34:03.815Z,1009.55
2018-01-26T03:35:12.776Z,1009.59
2018-01-26T03:36:21.737Z,1009.66
2018-01-26T03:37:30.700Z,1009.63
2018-01-26T03:38:39.671Z,1009.65
2018-01-26T03:39:48.617Z,1009.63
2018-01-26T03:40:57.566Z,1009.62
2018-01-26T03:42:06.500Z,1009.65
2018-01-26T03:43:15.706Z,1009.63
2018-01-26T03:44:24.902Z,1009.61
2018-01-26T03:45:33.590Z,1009.63
2018-01-26T03:46:42.270Z,1009.66
2018-01-26T03:47:51.474Z,1009.69
2018-01-26T03:49:00.402Z,1009.72
2018-01-26T03:50:09.607Z,1009.75
2018-01-26T03:51:18.831Z,1009.75
2018-01-26T03:52:27.795Z,1009.76
2018-01-26T03:53:36.471Z,1009.8
2018-01-26T03:54:45.153Z,1009.83
2018-01-26T03:55:54.904Z,1009.85
2018-01-26T03:57:04.388Z,1009.88
2018-01-26T03:58:13.861Z,1009.88
2018-01-26T03:59:23.074Z,1009.92
2018-01-26T04:00:32.275Z,1009.96
2018-01-26T04:01:41.735Z,1009.96
2018-01-26T04:02:50.418Z,1009.97
2018-01-26T04:03:59.881Z,1009.95
2018-01-26T04:05:08.893Z,1009.96
2018-01-26T04:06:18.896Z,1009.91
2018-01-26T04:07:28.111Z,1009.92
2018-01-26T04:08:36.822Z,1009.87
2018-01-26T04:09:45.522Z,1009.87
2018-01-26T04:10:54.200Z,1009.92
2018-01-26T04:12:02.882Z,1009.94
2018-01-26T04:13:11.838Z,1009.98
2018-01-26T04:14:21.039Z,1009.98
2018-01-26T04:15:30.010Z,1009.97
2018-01-26T04:16:39.471Z,1009.99
2018-01-26T04:17:48.157Z,1009.97
2018-01-26T04:18:57.633Z,1010.02
2018-01-26T04:20:06.588Z,1009.99
2018-01-26T04:21:15.360Z,1009.96
2018-01-26T04:22:24.559Z,1009.91
2018-01-26T04:23:33.240Z,1009.93
2018-01-26T04:24:41.949Z,1009.95
2018-01-26T04:25:50.886Z,1009.91
2018-01-26T04:26:59.839Z,1009.91
2018-01-26T04:28:09.050Z,1009.93
2018-01-26T04:29:18.000Z,1009.93
2018-01-26T04:30:26.944Z,1009.92
2018-01-26T04:31:35.891Z,1009.96
2018-01-26T04:32:44.853Z,1009.95
2018-01-26T04:33:53.815Z,1009.97
2018-01-26T04:35:03.029Z,1010
2018-01-26T04:36:12.233Z,1010.04
2018-01-26T04:37:20.932Z,1010.12
2018-01-26T04:38:30.127Z,1010.16
2018-01-26T04:39:38.810Z,1010.15
2018-01-26T04:40:47.848Z,1010.16
2018-01-26T04:41:56.821Z,1010.11
2018-01-26T04:43:06.034Z,1010.13
2018-01-26T04:44:15.236Z,1010.14
2018-01-26T04:45:24.730Z,1010.13
2018-01-26T04:46:33.695Z,1010.14
2018-01-26T04:47:42.644Z,1010.11
2018-01-26T04:48:51.606Z,1010.05
2018-01-26T04:50:00.814Z,1010.07
2018-01-26T04:51:09.501Z,1010.13
2018-01-26T04:52:18.447Z,1010.13
2018-01-26T04:53:27.655Z,1010.21
2018-01-26T04:54:36.594Z,1010.28
2018-01-26T04:55:45.535Z,1010.3
2018-01-26T04:56:54.496Z,1010.3
2018-01-26T04:58:03.691Z,1010.28
2018-01-26T04:59:12.640Z,1010.23
2018-01-26T05:00:21.860Z,1010.23
2018-01-26T05:01:31.075Z,1010.24
2018-01-26T05:02:40.297Z,1010.27
2018-01-26T05:03:49.770Z,1010.26
2018-01-26T05:04:58.715Z,1010.31
2018-01-26T05:06:08.191Z,1010.33
2018-01-26T05:07:17.413Z,1010.38
2018-01-26T05:08:26.114Z,1010.39
2018-01-26T05:09:35.058Z,1010.44
2018-01-26T05:10:43.751Z,1010.45
2018-01-26T05:11:52.701Z,1010.49
2018-01-26T05:13:01.931Z,1010.49
2018-01-26T05:14:11.145Z,1010.49
2018-01-26T05:15:20.099Z,1010.52
2018-01-26T05:16:29.574Z,1010.56
2018-01-26T05:17:38.778Z,1010.49
2018-01-26T05:18:47.459Z,1010.48
2018-01-26T05:19:56.247Z,1010.51
2018-01-26T05:21:04.943Z,1010.47
2018-01-26T05:22:13.626Z,1010.46
2018-01-26T05:23:22.831Z,1010.4
2018-01-26T05:24:32.052Z,1010.4
2018-01-26T05:25:41.258Z,1010.4
2018-01-26T05:26:50.242Z,1010.41
2018-01-26T05:27:59.211Z,1010.36
2018-01-26T05:29:08.171Z,1010.35
2018-01-26T05:30:17.140Z,1010.28
2018-01-26T05:31:26.076Z,1010.29
2018-01-26T05:32:35.035Z,1010.3
2018-01-26T05:33:44.529Z,1010.24
2018-01-26T05:34:53.743Z,1010.25
2018-01-26T05:36:02.706Z,1010.26
2018-01-26T05:37:11.934Z,1010.29
2018-01-26T05:38:20.927Z,1010.34
2018-01-26T05:39:30.082Z,1010.36
2018-01-26T05:40:38.792Z,1010.42
2018-01-26T05:41:47.733Z,1010.44
2018-01-26T05:42:56.966Z,1010.46
2018-01-26T05:44:05.930Z,1010.49
2018-01-26T05:45:14.622Z,1010.52
2018-01-26T05:46:24.103Z,1010.52
2018-01-26T05:47:33.348Z,1010.55
2018-01-26T05:48:42.046Z,1010.56
2018-01-26T05:49:51.571Z,1010.53
2018-01-26T05:51:00.511Z,1010.59
2018-01-26T05:52:09.204Z,1010.63
2018-01-26T05:53:17.904Z,1010.62
2018-01-26T05:54:26.589Z,1010.64
2018-01-26T05:55:35.550Z,1010.64
2018-01-26T05:56:44.250Z,1010.68
2018-01-26T05:57:53.199Z,1010.7
2018-01-26T05:59:02.421Z,1010.67
2018-01-26T06:00:11.645Z,1010.68
2018-01-26T06:01:20.597Z,1010.67
2018-01-26T06:02:29.317Z,1010.7
2018-01-26T06:03:38.001Z,1010.7
2018-01-26T06:04:47.227Z,1010.71
2018-01-26T06:05:56.182Z,1010.73
2018-01-26T06:07:05.127Z,1010.68
2018-01-26T06:08:14.342Z,1010.71
2018-01-26T06:09:23.278Z,1010.76
2018-01-26T06:10:32.734Z,1010.74
2018-01-26T06:11:41.450Z,1010.78
2018-01-26T06:12:50.390Z,1010.8
2018-01-26T06:13:59.069Z,1010.83
2018-01-26T06:15:08.296Z,1010.87
2018-01-26T06:16:17.253Z,1010.93
2018-01-26T06:17:26.243Z,1010.96
2018-01-26T06:18:35.234Z,1010.99
2018-01-26T06:19:44.177Z,1010.97
2018-01-26T06:20:53.165Z,1010.95
2018-01-26T06:22:01.882Z,1010.92
2018-01-26T06:23:11.359Z,1010.88
2018-01-26T06:24:20.056Z,1010.78
2018-01-26T06:25:28.758Z,1010.77
2018-01-26T06:26:37.451Z,1010.76
2018-01-26T06:27:46.715Z,1010.78
2018-01-26T06:28:55.664Z,1010.84
2018-01-26T06:30:04.361Z,1010.86
2018-01-26T06:31:13.319Z,1010.86
2018-01-26T06:32:22.792Z,1010.85
2018-01-26T06:33:31.749Z,1010.88
2018-01-26T06:34:41.018Z,1010.92
2018-01-26T06:35:50.486Z,1010.97
2018-01-26T06:36:59.431Z,1010.99
2018-01-26T06:38:08.649Z,1011.03
2018-01-26T06:39:17.852Z,1011.02
2018-01-26T06:40:26.545Z,1011.02
2018-01-26T06:41:35.220Z,1011.06
2018-01-26T06:42:44.486Z,1011.07
2018-01-26T06:43:53.462Z,1011.01
2018-01-26T06:45:02.149Z,1010.99
2018-01-26T06:46:11.362Z,1010.99
2018-01-26T06:47:20.315Z,1010.97
2018-01-26T06:48:29.026Z,1010.99
2018-01-26T06:49:38.252Z,1011.01
2018-01-26T06:50:47.248Z,1011.03
2018-01-26T06:51:56.203Z,1011.07
2018-01-26T06:53:05.174Z,1011.13
2018-01-26T06:54:14.170Z,1011.17
2018-01-26T06:55:23.376Z,1011.18
2018-01-26T06:56:32.328Z,1011.2
2018-01-26T06:57:41.263Z,1011.23
2018-01-26T06:58:50.519Z,1011.22
2018-01-26T06:59:59.720Z,1011.23
2018-01-26T07:01:08.673Z,1011.23
2018-01-26T07:02:17.618Z,1011.26
2018-01-26T07:03:26.608Z,1011.24
2018-01-26T07:04:35.548Z,1011.27
2018-01-26T07:05:44.232Z,1011.28
2018-01-26T07:06:53.479Z,1011.33
2018-01-26T07:08:02.225Z,1011.36
2018-01-26T07:09:11.710Z,1011.39
2018-01-26T07:10:21.181Z,1011.41
2018-01-26T07:11:30.147Z,1011.47
2018-01-26T07:12:39.124Z,1011.51
2018-01-26T07:13:48.598Z,1011.54
2018-01-26T07:14:57.282Z,1011.59
2018-01-26T07:16:06.488Z,1011.64
2018-01-26T07:17:15.182Z,1011.67
2018-01-26T07:18:24.381Z,1011.73
2018-01-26T07:19:33.578Z,1011.73
2018-01-26T07:20:42.258Z,1011.69
2018-01-26T07:22:03.971Z,1011.68
2018-01-26T07:23:12.920Z,1011.68
2018-01-26T07:24:21.880Z,1011.7
2018-01-26T07:25:31.087Z,1011.68
2018-01-26T07:26:40.030Z,1011.65
2018-01-26T07:27:49.285Z,1011.7
2018-01-26T07:28:58.252Z,1011.72
2018-01-26T07:30:07.269Z,1011.75
2018-01-26T07:31:16.209Z,1011.74
2018-01-26T07:32:25.457Z,1011.74
2018-01-26T07:33:34.959Z,1011.76
2018-01-26T07:34:43.899Z,1011.77
2018-01-26T07:35:52.861Z,1011.81
2018-01-26T07:37:02.106Z,1011.81
2018-01-26T07:38:11.063Z,1011.87
2018-01-26T07:39:19.755Z,1011.93
2018-01-26T07:40:29.487Z,1011.92
2018-01-26T07:41:38.695Z,1011.96
2018-01-26T07:42:47.662Z,1011.96
2018-01-26T07:43:57.414Z,1011.97
2018-01-26T07:45:06.384Z,1012
2018-01-26T07:46:15.329Z,1012.03
2018-01-26T07:47:24.528Z,1012.03
2018-01-26T07:48:33.249Z,1012.07
2018-01-26T07:49:42.241Z,1012.07
2018-01-26T07:50:50.934Z,1012.07
2018-01-26T07:51:59.894Z,1012.07
2018-01-26T07:53:08.584Z,1012.07
2018-01-26T07:54:17.299Z,1012.04
2018-01-26T07:55:25.988Z,1012.06
2018-01-26T07:56:35.978Z,1012.05
2018-01-26T07:57:45.438Z,1012.02
2018-01-26T07:58:54.659Z,1012.02
2018-01-26T08:00:03.876Z,1012.03
2018-01-26T08:01:13.369Z,1012.07
2018-01-26T08:02:22.325Z,1012.05
2018-01-26T08:03:31.287Z,1012.08
2018-01-26T08:04:40.772Z,1012.12
2018-01-26T08:05:49.729Z,1012.12
2018-01-26T08:06:58.949Z,1012.14
2018-01-26T08:08:07.918Z,1012.16
2018-01-26T08:09:16.872Z,1012.13
2018-01-26T08:10:25.841Z,1012.18
2018-01-26T08:11:34.814Z,1012.21
2018-01-26T08:12:44.031Z,1012.27
2018-01-26T08:13:53.247Z,1012.23
2018-01-26T08:15:02.014Z,1012.22
2018-01-26T08:16:11.292Z,1012.2
2018-01-26T08:17:20.230Z,1012.16
2018-01-26T08:18:28.925Z,1012.16
2018-01-26T08:19:37.612Z,1012.17
2018-01-26T08:20:46.821Z,1012.16
2018-01-26T08:21:56.024Z,1012.12
2018-01-26T08:23:05.241Z,1012.17
2018-01-26T08:24:13.938Z,1012.16
2018-01-26T08:25:22.894Z,1012.23
2018-01-26T08:26:31.850Z,1012.24
2018-01-26T08:27:40.539Z,1012.29
2018-01-26T08:28:49.254Z,1012.29
2018-01-26T08:29:58.210Z,1012.28
2018-01-26T08:31:07.185Z,1012.29
2018-01-26T08:32:16.414Z,1012.37
2018-01-26T08:33:25.636Z,1012.35
2018-01-26T08:34:34.598Z,1012.37
2018-01-26T08:35:43.812Z,1012.3
2018-01-26T08:36:52.517Z,1012.26
2018-01-26T08:38:02.009Z,1012.25
2018-01-26T08:39:10.708Z,1012.17
2018-01-26T08:40:19.396Z,1012.14
2018-01-26T08:41:28.345Z,1012.17
2018-01-26T08:42:37.037Z,1012.15
2018-01-26T08:43:45.737Z,1012.2
2018-01-26T08:44:54.689Z,1012.23
2018-01-26T08:46:04.176Z,1012.29
2018-01-26T08:47:13.141Z,1012.31
2018-01-26T08:48:22.882Z,1012.27
2018-01-26T08:49:31.847Z,1012.29
2018-01-26T08:50:40.838Z,1012.3
2018-01-26T08:51:50.572Z,1012.31
2018-01-26T08:52:59.809Z,1012.37
2018-01-26T08:54:08.772Z,1012.37
2018-01-26T08:55:17.752Z,1012.4
2018-01-26T08:56:26.737Z,1012.37
2018-01-26T08:57:35.435Z,1012.4
2018-01-26T08:58:44.438Z,1012.4
2018-01-26T08:59:53.392Z,1012.4
2018-01-26T09:01:03.128Z,1012.43
2018-01-26T09:02:12.166Z,1012.42
2018-01-26T09:03:21.147Z,1012.43
2018-01-26T09:04:30.127Z,1012.45
2018-01-26T09:05:39.057Z,1012.47
2018-01-26T09:06:48.790Z,1012.45
2018-01-26T09:07:57.747Z,1012.5
2018-01-26T09:09:06.952Z,1012.47
2018-01-26T09:10:15.709Z,1012.51
2018-01-26T09:11:24.411Z,1012.54
2018-01-26T09:12:33.098Z,1012.56
2018-01-26T09:13:42.118Z,1012.62
2018-01-26T09:14:51.070Z,1012.61
2018-01-26T09:16:00.307Z,1012.67
2018-01-26T09:17:09.304Z,1012.7
2018-01-26T09:18:17.940Z,1012.72
2018-01-26T09:19:27.440Z,1012.77
2018-01-26T09:20:36.394Z,1012.8
2018-01-26T09:21:45.603Z,1012.84
2018-01-26T09:22:54.821Z,1012.84
2018-01-26T09:24:03.834Z,1012.86
2018-01-26T09:25:13.578Z,1012.89
2018-01-26T09:26:22.262Z,1012.89
2018-01-26T09:27:31.223Z,1012.87
2018-01-26T09:28:40.195Z,1012.9
2018-01-26T09:29:49.149Z,1012.91
2018-01-26T09:30:58.079Z,1012.93
2018-01-26T09:32:07.306Z,1012.94
2018-01-26T09:33:16.517Z,1012.98
2018-01-26T09:34:25.818Z,1013
2018-01-26T09:35:34.770Z,1013.05
2018-01-26T09:36:43.985Z,1013.04
2018-01-26T09:37:53.199Z,1013.05
2018-01-26T09:39:02.949Z,1013.08
2018-01-26T09:40:12.165Z,1013.06
2018-01-26T09:41:21.656Z,1013.08
2018-01-26T09:42:31.132Z,1013.05
2018-01-26T09:43:40.341Z,1013.04
2018-01-26T09:44:49.821Z,1013.05
2018-01-26T09:45:59.044Z,1013.06
2018-01-26T09:47:07.734Z,1013.06
2018-01-26T09:48:16.454Z,1013.08
2018-01-26T09:49:25.666Z,1013.13
2018-01-26T09:50:34.364Z,1013.15
2018-01-26T09:51:43.594Z,1013.16
2018-01-26T09:52:52.555Z,1013.2
2018-01-26T09:54:01.785Z,1013.22
2018-01-26T09:55:10.722Z,1013.23
2018-01-26T09:56:19.936Z,1013.28
2018-01-26T09:57:28.628Z,1013.29
2018-01-26T09:58:37.852Z,1013.35
2018-01-26T09:59:46.793Z,1013.29
2018-01-26T10:00:55.753Z,1013.33
2018-01-26T10:02:04.731Z,1013.35
2018-01-26T10:03:13.945Z,1013.33
2018-01-26T10:04:22.896Z,1013.31
2018-01-26T10:05:31.860Z,1013.3
2018-01-26T10:06:41.606Z,1013.33
2018-01-26T10:07:50.551Z,1013.33
2018-01-26T10:08:59.508Z,1013.33
2018-01-26T10:10:08.203Z,1013.31
2018-01-26T10:11:16.932Z,1013.33
2018-01-26T10:12:26.157Z,1013.33
2018-01-26T10:13:35.376Z,1013.29
2018-01-26T10:14:44.602Z,1013.32
2018-01-26T10:15:53.318Z,1013.31
2018-01-26T10:17:02.034Z,1013.33
2018-01-26T10:18:11.249Z,1013.36
2018-01-26T10:19:20.467Z,1013.32
2018-01-26T10:20:29.957Z,1013.34
2018-01-26T10:21:39.191Z,1013.36
2018-01-26T10:22:47.882Z,1013.35
2018-01-26T10:23:57.127Z,1013.38
2018-01-26T10:25:06.364Z,1013.42
2018-01-26T10:26:15.061Z,1013.41
2018-01-26T10:27:24.275Z,1013.44
2018-01-26T10:28:33.510Z,1013.43
2018-01-26T10:29:42.215Z,1013.46
2018-01-26T10:30:51.161Z,1013.48
2018-01-26T10:32:00.367Z,1013.47
2018-01-26T10:33:09.057Z,1013.46
2018-01-26T10:34:18.026Z,1013.52
2018-01-26T10:35:27.256Z,1013.52
2018-01-26T10:36:36.214Z,1013.51
2018-01-26T10:37:44.903Z,1013.53
2018-01-26T10:38:54.400Z,1013.52
2018-01-26T10:40:03.363Z,1013.52
2018-01-26T10:41:12.326Z,1013.53
2018-01-26T10:42:21.030Z,1013.52
2018-01-26T10:43:30.543Z,1013.58
2018-01-26T10:44:40.039Z,1013.57
2018-01-26T10:45:48.985Z,1013.57
2018-01-26T10:46:57.951Z,1013.61
2018-01-26T10:48:06.647Z,1013.6
2018-01-26T10:49:15.861Z,1013.58
2018-01-26T10:50:25.089Z,1013.6
2018-01-26T10:51:34.293Z,1013.63
2018-01-26T10:52:43.236Z,1013.66
2018-01-26T10:53:52.714Z,1013.68
2018-01-26T10:55:01.402Z,1013.7
2018-01-26T10:56:10.360Z,1013.74
2018-01-26T10:57:20.087Z,1013.76
2018-01-26T10:58:29.040Z,1013.77
2018-01-26T10:59:37.983Z,1013.76
2018-01-26T11:00:46.938Z,1013.79
2018-01-26T11:01:55.888Z,1013.78
2018-01-26T11:03:04.856Z,1013.77
2018-01-26T11:04:14.140Z,1013.79
2018-01-26T11:05:23.602Z,1013.78
2018-01-26T11:06:32.835Z,1013.77
2018-01-26T11:07:41.787Z,1013.81
2018-01-26T11:08:50.535Z,1013.78
2018-01-26T11:09:59.419Z,1013.81
2018-01-26T11:11:08.374Z,1013.83
2018-01-26T11:12:17.329Z,1013.85
2018-01-26T11:13:26.625Z,1013.86
2018-01-26T11:14:35.359Z,1013.9
2018-01-26T11:15:44.061Z,1013.88
2018-01-26T11:16:53.296Z,1013.94
2018-01-26T11:18:02.538Z,1013.91
2018-01-26T11:19:12.044Z,1013.92
2018-01-26T11:20:21.249Z,1013.9
2018-01-26T11:21:30.274Z,1013.91
2018-01-26T11:22:39.231Z,1013.93
2018-01-26T11:23:47.921Z,1013.94
2018-01-26T11:24:56.918Z,1013.98
2018-01-26T11:26:05.636Z,1013.99
2018-01-26T11:27:14.599Z,1013.99
2018-01-26T11:28:24.083Z,1013.98
2018-01-26T11:29:33.032Z,1013.99
2018-01-26T11:30:42.256Z,1013.94
2018-01-26T11:31:52.009Z,1013.98
2018-01-26T11:33:01.242Z,1013.96
2018-01-26T11:34:10.206Z,1013.98
2018-01-26T11:35:19.173Z,1014
2018-01-26T11:36:27.875Z,1014.03
2018-01-26T11:37:37.114Z,1014.05
2018-01-26T11:38:46.586Z,1014.08
2018-01-26T11:39:55.811Z,1014.09
2018-01-26T11:41:04.532Z,1014.09
2018-01-26T11:42:13.243Z,1014.09
2018-01-26T11:43:22.511Z,1014.11
2018-01-26T11:44:31.471Z,1014.12
2018-01-26T11:45:40.441Z,1014.18
2018-01-26T11:46:49.663Z,1014.17
2018-01-26T11:47:58.615Z,1014.18
2018-01-26T11:49:07.569Z,1014.21
2018-01-26T11:50:16.805Z,1014.23
2018-01-26T11:51:26.298Z,1014.26
2018-01-26T11:52:35.768Z,1014.27
2018-01-26T11:53:44.970Z,1014.31
2018-01-26T11:54:54.448Z,1014.32
2018-01-26T11:56:03.390Z,1014.33
2018-01-26T11:57:12.863Z,1014.33
2018-01-26T11:58:21.555Z,1014.3
2018-01-26T11:59:30.506Z,1014.27
2018-01-26T12:00:39.464Z,1014.26
2018-01-26T12:01:48.415Z,1014.23
2018-01-26T12:02:57.627Z,1014.22
2018-01-26T12:04:06.579Z,1014.21
2018-01-26T12:05:16.303Z,1014.21
2018-01-26T12:06:25.506Z,1014.22
2018-01-26T12:07:34.734Z,1014.2
2018-01-26T12:08:43.955Z,1014.2
2018-01-26T12:09:52.900Z,1014.19
2018-01-26T12:11:02.139Z,1014.22
2018-01-26T12:12:10.818Z,1014.23
2018-01-26T12:13:19.761Z,1014.24
2018-01-26T12:14:28.707Z,1014.24
2018-01-26T12:15:37.910Z,1014.25
2018-01-26T12:16:46.856Z,1014.24
2018-01-26T12:17:55.814Z,1014.23
2018-01-26T12:19:04.766Z,1014.19
2018-01-26T12:20:13.729Z,1014.23
2018-01-26T12:21:22.936Z,1014.24
2018-01-26T12:22:31.889Z,1014.22
2018-01-26T12:23:41.115Z,1014.2
2018-01-26T12:24:49.840Z,1014.2
2018-01-26T12:25:58.775Z,1014.18
2018-01-26T12:27:07.467Z,1014.19
2018-01-26T12:28:16.429Z,1014.19
2018-01-26T12:29:26.184Z,1014.21
2018-01-26T12:30:35.140Z,1014.21
2018-01-26T12:31:44.082Z,1014.19
2018-01-26T12:32:53.040Z,1014.19
2018-01-26T12:34:02.258Z,1014.22
2018-01-26T12:35:11.476Z,1014.21
2018-01-26T12:36:20.679Z,1014.21
2018-01-26T12:37:29.883Z,1014.21
2018-01-26T12:38:38.833Z,1014.17
2018-01-26T12:39:48.318Z,1014.22
2018-01-26T12:40:57.266Z,1014.2
2018-01-26T12:42:06.217Z,1014.19
2018-01-26T12:43:15.181Z,1014.14
2018-01-26T12:44:24.143Z,1014.21
2018-01-26T12:45:33.353Z,1014.19
2018-01-26T12:46:42.309Z,1014.22
2018-01-26T12:47:51.898Z,1014.21
2018-01-26T12:49:00.852Z,1014.21
2018-01-26T12:50:09.816Z,1014.27
2018-01-26T12:51:18.520Z,1014.27
2018-01-26T12:52:27.462Z,1014.3
2018-01-26T12:53:36.415Z,1014.3
2018-01-26T12:54:45.110Z,1014.29
2018-01-26T12:55:53.796Z,1014.25
2018-01-26T12:57:02.746Z,1014.28
2018-01-26T12:58:11.952Z,1014.34
2018-01-26T12:59:20.898Z,1014.3
2018-01-26T13:00:29.608Z,1014.34
2018-01-26T13:01:38.292Z,1014.32
2018-01-26T13:02:47.769Z,1014.36
2018-01-26T13:03:56.980Z,1014.36
2018-01-26T13:05:05.682Z,1014.44
2018-01-26T13:06:14.655Z,1014.41
2018-01-26T13:07:23.340Z,1014.44
2018-01-26T13:08:32.290Z,1014.46
2018-01-26T13:09:41.251Z,1014.44
2018-01-26T13:10:49.948Z,1014.47
2018-01-26T13:11:59.194Z,1014.48
2018-01-26T13:13:08.407Z,1014.47
2018-01-26T13:14:17.141Z,1014.44
2018-01-26T13:15:26.348Z,1014.48
2018-01-26T13:16:35.552Z,1014.43
2018-01-26T13:17:44.504Z,1014.44
2018-01-26T13:18:53.736Z,1014.47
2018-01-26T13:20:02.484Z,1014.48
2018-01-26T13:21:11.724Z,1014.48
2018-01-26T13:22:20.932Z,1014.49
2018-01-26T13:23:29.642Z,1014.48
2018-01-26T13:24:38.593Z,1014.48
2018-01-26T13:25:47.805Z,1014.48
2018-01-26T13:26:56.514Z,1014.52
2018-01-26T13:28:05.220Z,1014.51
2018-01-26T13:29:14.442Z,1014.5
2018-01-26T13:30:23.123Z,1014.52
2018-01-26T13:31:31.804Z,1014.55
2018-01-26T13:32:40.498Z,1014.55
2018-01-26T13:33:49.733Z,1014.61
2018-01-26T13:34:59.217Z,1014.63
2018-01-26T13:36:08.692Z,1014.57
2018-01-26T13:37:18.097Z,1014.63
2018-01-26T13:38:27.315Z,1014.63
2018-01-26T13:39:36.273Z,1014.59
2018-01-26T13:40:45.827Z,1014.61
2018-01-26T13:41:54.778Z,1014.64
2018-01-26T13:43:03.997Z,1014.62
2018-01-26T13:44:13.479Z,1014.61
2018-01-26T13:45:22.206Z,1014.6
2018-01-26T13:46:31.422Z,1014.6
2018-01-26T13:47:40.384Z,1014.64
2018-01-26T13:48:49.343Z,1014.63
2018-01-26T13:49:58.315Z,1014.63
2018-01-26T13:51:07.795Z,1014.62
2018-01-26T13:52:17.029Z,1014.67
2018-01-26T13:53:26.242Z,1014.64
2018-01-26T13:54:35.464Z,1014.68
2018-01-26T13:55:44.181Z,1014.7
2018-01-26T13:56:53.461Z,1014.69
2018-01-26T13:58:02.935Z,1014.75